Time;durP1;ratioP1;P1;durP2;ratioP2;P2;SDS_P1;SDS_P2;PMS_P1;PMS_P2;Temp;Humidity;BMP_temperature;BMP_pressure;BME280_temperature;BME280_humidity;BME280_pressure;Samples;Min_cycle;Max_cycle;Signal;HPM_P1;HPM_P2
2023/09/06 00:01:05;;;;;;;7.27;2.73;;;;;;;20.30;76.38;101664.22;5227576;28;20041;-78
2023/09/06 00:03:37;;;;;;;5.18;2.97;;;;;;;20.13;77.30;101662.22;5227270;28;20088;-81
2023/09/06 00:06:10;;;;;;;;;;;;;;;20.38;73.58;101663.91;5212348;28;20106;-80
2023/09/06 00:08:42;;;;;;;5.35;2.85;;;;;;;20.18;76.96;101660.25;5206533;28;19914;-79
2023/09/06 00:11:15;;;;;;;4.57;3.50;;;;;;;20.17;77.30;101668.25;5206635;28;20026;-80
2023/09/06 00:13:46;;;;;;;4.68;2.58;;;;;;;19.94;77.88;101661.22;5204588;28;20300;-80
2023/09/06 00:16:17;;;;;;;4.80;3.07;;;;;;;19.93;78.20;101651.56;5205804;28;20109;-79
2023/09/06 00:18:50;;;;;;;6.07;2.97;;;;;;;19.85;78.26;101651.84;5204405;28;20038;-80
2023/09/06 00:21:23;;;;;;;5.40;3.10;;;;;;;19.96;77.25;101647.00;5204762;28;20478;-80
2023/09/06 00:23:55;;;;;;;4.38;3.45;;;;;;;19.88;77.78;101642.94;5190002;28;20054;-78
2023/09/06 00:26:27;;;;;;;7.63;3.53;;;;;;;19.84;77.69;101640.41;5224350;28;20081;-80
2023/09/06 00:28:58;;;;;;;5.57;3.50;;;;;;;20.15;78.41;101643.66;5223790;28;20057;-79
2023/09/06 00:31:31;;;;;;;6.23;3.23;;;;;;;19.90;78.68;101647.25;5222728;28;20034;-80
2023/09/06 00:34:03;;;;;;;6.07;2.95;;;;;;;19.78;79.20;101637.97;5204665;28;20042;-80
2023/09/06 00:36:34;;;;;;;6.67;4.00;;;;;;;19.76;79.12;101646.91;5222443;28;20042;-80
2023/09/06 00:39:06;;;;;;;4.73;2.80;;;;;;;19.90;79.42;101643.72;5222470;28;20079;-81
2023/09/06 00:41:40;;;;;;;4.18;3.00;;;;;;;19.60;80.40;101647.44;5204977;28;20042;-80
2023/09/06 00:44:11;;;;;;;4.75;2.97;;;;;;;19.57;80.50;101654.63;5222077;28;20121;-80
2023/09/06 00:46:42;;;;;;;5.33;3.13;;;;;;;19.62;80.53;101652.66;5221904;28;20108;-81
2023/09/06 00:49:14;;;;;;;5.00;3.50;;;;;;;19.59;79.91;101656.28;5221542;28;20057;-81
2023/09/06 00:51:45;;;;;;;5.93;3.00;;;;;;;19.48;80.42;101653.16;5221726;28;20034;-81
2023/09/06 00:54:17;;;;;;;6.13;3.37;;;;;;;19.72;80.75;101653.19;5221660;28;20074;-80
2023/09/06 00:56:48;;;;;;;6.37;3.77;;;;;;;19.47;79.73;101648.81;5204366;28;20103;-81
2023/09/06 00:59:22;;;;;;;5.73;3.17;;;;;;;19.48;80.40;101654.06;5221641;28;20044;-80
2023/09/06 01:01:55;;;;;;;5.40;3.35;;;;;;;19.59;79.96;101656.28;5221981;28;20103;-80
2023/09/06 01:04:26;;;;;;;5.97;3.72;;;;;;;19.36;80.86;101658.91;5221253;28;20095;-81
2023/09/06 01:07:00;;;;;;;6.73;3.60;;;;;;;19.50;79.56;101657.50;5221688;28;20034;-80
2023/09/06 01:09:32;;;;;;;5.68;3.28;;;;;;;19.52;80.54;101656.59;5221352;28;20046;-81
2023/09/06 01:12:03;;;;;;;5.73;3.50;;;;;;;19.33;81.61;101654.59;5221710;28;20070;-81
2023/09/06 01:14:38;;;;;;;7.80;4.23;;;;;;;19.23;81.65;101654.06;5221198;28;20038;-80
2023/09/06 01:17:12;;;;;;;4.63;3.17;;;;;;;19.04;82.35;101660.91;5221565;28;20030;-80
2023/09/06 01:19:52;;;;;;;6.35;3.50;;;;;;;19.08;82.75;101662.53;5220996;28;20026;-80
2023/09/06 01:22:34;;;;;;;4.57;3.28;;;;;;;19.11;83.33;101662.41;5221827;28;20046;-79
2023/09/06 01:25:08;;;;;;;7.72;3.05;;;;;;;19.11;83.41;101658.00;5221311;28;20449;-80
2023/09/06 01:27:39;;;;;;;6.80;3.97;;;;;;;19.16;83.01;101655.19;5221697;28;20382;-80
2023/09/06 01:30:11;;;;;;;8.17;3.87;;;;;;;19.06;82.83;101659.06;5221442;28;20096;-80
2023/09/06 01:32:43;;;;;;;9.50;3.70;;;;;;;18.88;83.36;101650.84;5221354;28;20030;-80
2023/09/06 01:35:15;;;;;;;4.27;3.30;;;;;;;19.00;84.04;101657.50;5221202;28;20104;-80
2023/09/06 01:37:50;;;;;;;6.57;3.30;;;;;;;18.95;84.59;101659.44;5221090;28;20026;-79
2023/09/06 01:40:21;;;;;;;6.25;3.67;;;;;;;18.90;84.97;101664.00;5196005;28;20030;-79
2023/09/06 01:42:53;;;;;;;5.13;3.30;;;;;;;18.73;85.39;101664.53;5201014;28;20026;-80
2023/09/06 01:45:27;;;;;;;6.30;2.83;;;;;;;18.78;85.34;101662.59;5200442;28;20049;-81
2023/09/06 01:47:58;;;;;;;7.07;3.78;;;;;;;18.68;86.34;101667.34;5201615;28;20045;-79
2023/09/06 01:50:30;;;;;;;4.37;3.20;;;;;;;18.61;86.74;101667.56;5209608;28;20034;-79
2023/09/06 01:53:01;;;;;;;5.33;3.30;;;;;;;18.45;86.98;101673.38;5207589;28;20067;-79
2023/09/06 01:55:32;;;;;;;10.83;3.50;;;;;;;18.39;87.58;101665.63;5221139;28;20022;-78
2023/09/06 01:58:04;;;;;;;11.27;3.60;;;;;;;18.36;87.98;101673.66;5221427;28;20038;-80
2023/09/06 02:00:37;;;;;;;8.90;3.40;;;;;;;18.35;88.26;101678.06;5201656;28;20031;-80
2023/09/06 02:03:10;;;;;;;12.63;3.83;;;;;;;18.18;89.14;101670.66;5202123;28;20228;-80
2023/09/06 02:05:43;;;;;;;4.82;3.42;;;;;;;18.26;89.38;101678.34;5201918;28;20540;-81
2023/09/06 02:08:16;;;;;;;5.78;3.42;;;;;;;18.43;88.64;101669.88;5201148;28;20077;-80
2023/09/06 02:10:47;;;;;;;;;;;;;;;18.39;86.11;101677.03;5201012;28;20027;-81
2023/09/06 02:13:18;;;;;;;6.50;3.60;;;;;;;18.29;87.94;101672.09;5200744;28;19918;-81
2023/09/06 02:15:50;;;;;;;7.10;3.40;;;;;;;18.21;88.57;101667.94;5202181;28;20113;-79
2023/09/06 02:18:21;;;;;;;6.43;3.23;;;;;;;18.11;88.20;101670.88;5225187;28;20044;-78
2023/09/06 02:20:55;;;;;;;6.43;3.93;;;;;;;18.13;88.53;101676.97;5223856;28;20108;-79
2023/09/06 02:23:26;;;;;;;5.97;3.13;;;;;;;18.07;88.86;101670.13;5224632;28;20389;-79
2023/09/06 02:25:58;;;;;;;7.00;3.70;;;;;;;18.06;88.45;101671.03;5225032;28;20061;-80
2023/09/06 02:28:29;;;;;;;7.03;3.30;;;;;;;18.01;89.25;101672.94;5224776;28;20124;-79
2023/09/06 02:31:01;;;;;;;4.60;3.30;;;;;;;18.01;89.14;101673.78;5224444;28;20040;-80
2023/09/06 02:33:32;;;;;;;8.13;3.73;;;;;;;18.13;89.79;101677.84;5224451;28;20041;-79
2023/09/06 02:36:04;;;;;;;7.00;3.83;;;;;;;17.85;90.32;101676.00;5224542;28;20470;-80
2023/09/06 02:38:36;;;;;;;;;;;;;;;17.94;87.76;101679.31;5225093;28;20103;-80
2023/09/06 02:41:07;;;;;;;6.55;3.53;;;;;;;17.81;90.58;101681.41;5224677;28;19995;-80
2023/09/06 02:43:38;;;;;;;5.17;3.57;;;;;;;17.75;90.30;101673.66;5207062;28;20045;-80
2023/09/06 02:46:12;;;;;;;6.00;3.13;;;;;;;17.83;89.99;101676.94;5224869;28;20441;-80
2023/09/06 02:48:46;;;;;;;6.25;3.25;;;;;;;17.74;90.98;101675.44;5229230;28;20030;-80
2023/09/06 02:51:18;;;;;;;4.25;3.05;;;;;;;17.72;91.12;101673.75;5228903;28;20029;-79
2023/09/06 02:53:49;;;;;;;4.20;3.40;;;;;;;17.71;91.43;101675.53;5228665;28;20037;-79
2023/09/06 02:56:22;;;;;;;5.93;3.50;;;;;;;17.44;92.19;101672.75;5228286;28;20037;-79
2023/09/06 02:58:53;;;;;;;4.65;3.55;;;;;;;17.55;92.22;101668.94;5228003;28;20077;-80
2023/09/06 03:01:25;;;;;;;6.57;3.80;;;;;;;17.45;92.86;101676.25;5226681;28;20069;-79
2023/09/06 03:03:58;;;;;;;6.60;3.40;;;;;;;17.42;93.39;101679.84;5227735;28;20493;-80
2023/09/06 03:06:33;;;;;;;6.45;3.20;;;;;;;17.33;93.83;101676.59;5227037;28;20041;-80
2023/09/06 03:09:06;;;;;;;8.15;3.75;;;;;;;17.35;94.27;101686.16;5227061;28;20033;-79
2023/09/06 03:11:38;;;;;;;6.22;3.13;;;;;;;17.25;94.39;101682.06;5209257;28;20057;-80
2023/09/06 03:14:10;;;;;;;8.25;4.00;;;;;;;17.29;94.97;101679.31;5225590;28;20026;-80
2023/09/06 03:16:42;;;;;;;5.40;4.27;;;;;;;17.15;94.88;101681.44;5224635;28;20045;-81
2023/09/06 03:19:13;;;;;;;4.63;3.35;;;;;;;17.13;95.22;101675.34;5206382;28;20037;-80
2023/09/06 03:21:44;;;;;;;7.43;3.63;;;;;;;17.08;95.65;101680.75;5224834;28;20088;-80
2023/09/06 03:24:17;;;;;;;6.17;3.77;;;;;;;17.07;95.87;101692.16;5226236;28;20038;-81
2023/09/06 03:26:49;;;;;;;8.40;4.20;;;;;;;16.91;97.13;101686.41;5226702;28;20038;-80
2023/09/06 03:29:22;;;;;;;6.17;3.87;;;;;;;16.89;96.93;101687.38;5224896;28;20029;-80
2023/09/06 03:31:53;;;;;;;6.47;3.85;;;;;;;16.83;97.61;101683.09;5224047;28;20060;-79
2023/09/06 03:34:25;;;;;;;7.07;3.90;;;;;;;16.93;96.32;101695.13;5223947;28;20026;-79
2023/09/06 03:36:57;;;;;;;9.27;3.87;;;;;;;16.84;95.82;101694.47;5223799;28;20045;-79
2023/09/06 03:39:29;;;;;;;6.00;3.38;;;;;;;16.76;96.86;101692.91;5223427;28;20033;-80
2023/09/06 03:42:00;;;;;;;5.32;3.53;;;;;;;16.89;97.04;101692.66;5223539;28;20030;-79
2023/09/06 03:44:32;;;;;;;6.50;4.33;;;;;;;16.78;97.31;101691.09;5223431;28;20033;-79
2023/09/06 03:47:06;;;;;;;4.83;3.83;;;;;;;16.68;97.54;101692.22;5223410;28;20034;-79
2023/09/06 03:49:38;;;;;;;7.97;4.47;;;;;;;16.70;97.82;101694.81;5222889;28;20072;-78
2023/09/06 03:52:16;;;;;;;9.10;4.05;;;;;;;16.68;98.46;101696.59;5205780;28;20038;-79
2023/09/06 03:54:50;;;;;;;5.88;3.88;;;;;;;16.68;98.34;101693.97;5223024;28;20038;-78
2023/09/06 03:57:22;;;;;;;5.93;3.80;;;;;;;16.61;98.75;101698.53;5222969;28;20030;-79
2023/09/06 03:59:53;;;;;;;5.03;3.50;;;;;;;16.55;99.14;101699.53;5223015;28;20029;-78
2023/09/06 04:02:27;;;;;;;7.37;4.37;;;;;;;16.50;99.56;101700.53;5205319;28;20040;-79
2023/09/06 04:04:58;;;;;;;8.65;4.18;;;;;;;16.39;100.00;101709.53;5222862;28;20359;-79
2023/09/06 04:07:29;;;;;;;12.13;4.80;;;;;;;16.37;100.00;101707.84;5222696;28;20026;-79
2023/09/06 04:10:02;;;;;;;5.83;3.93;;;;;;;16.38;100.00;101704.31;5223207;28;20097;-80
2023/09/06 04:12:35;;;;;;;5.35;4.20;;;;;;;16.27;100.00;101706.31;5222927;28;20032;-79
2023/09/06 04:15:07;;;;;;;;;;;;;;;16.37;98.43;101711.34;5223132;28;20040;-79
2023/09/06 04:17:40;;;;;;;7.43;4.68;;;;;;;16.31;99.97;101711.50;5222744;28;19922;-80
2023/09/06 04:20:20;;;;;;;9.35;4.18;;;;;;;16.20;100.00;101702.97;5222222;28;20034;-80
2023/09/06 04:22:52;;;;;;;5.40;4.60;;;;;;;16.26;100.00;101712.47;5222198;28;20129;-80
2023/09/06 04:25:26;;;;;;;6.80;4.73;;;;;;;16.20;100.00;101711.72;5222493;28;20477;-80
2023/09/06 04:27:57;;;;;;;7.57;4.70;;;;;;;16.23;100.00;101709.00;5204466;28;20026;-80
2023/09/06 04:30:29;;;;;;;7.30;4.40;;;;;;;16.28;100.00;101715.97;5222515;28;20049;-79
2023/09/06 04:33:03;;;;;;;6.43;4.13;;;;;;;16.17;100.00;101718.81;5222408;28;20029;-80
2023/09/06 04:35:39;;;;;;;6.20;4.70;;;;;;;16.06;100.00;101720.81;5222342;28;20120;-79
2023/09/06 04:38:12;;;;;;;7.00;4.70;;;;;;;16.07;100.00;101717.25;5222519;28;20022;-79
2023/09/06 04:40:44;;;;;;;5.63;4.40;;;;;;;16.02;100.00;101718.22;5221085;28;20065;-81
2023/09/06 04:43:19;;;;;;;7.63;4.75;;;;;;;16.01;100.00;101713.84;5221884;28;20034;-80
2023/09/06 04:45:50;;;;;;;9.00;4.93;;;;;;;15.94;100.00;101714.00;5222050;28;20080;-80
2023/09/06 04:48:23;;;;;;;7.83;4.67;;;;;;;15.92;100.00;101719.28;5222178;28;20037;-80
2023/09/06 04:50:56;;;;;;;7.00;4.85;;;;;;;16.01;100.00;101724.38;5204384;28;20038;-80
2023/09/06 04:53:28;;;;;;;6.45;4.80;;;;;;;15.92;100.00;101718.44;5222192;28;20062;-87
2023/09/06 04:56:03;;;;;;;8.53;5.23;;;;;;;15.93;100.00;101728.06;5222689;28;20061;-83
2023/09/06 04:58:35;;;;;;;7.45;5.53;;;;;;;15.89;100.00;101737.78;5222149;28;20033;-83
2023/09/06 05:01:07;;;;;;;6.65;5.20;;;;;;;15.90;100.00;101730.75;5222432;28;20429;-83
2023/09/06 05:03:40;;;;;;;9.47;6.00;;;;;;;15.93;100.00;101735.97;5222386;28;20030;-82
2023/09/06 05:06:12;;;;;;;7.22;5.00;;;;;;;15.85;100.00;101733.47;5222144;28;20030;-82
2023/09/06 05:08:43;;;;;;;9.15;5.72;;;;;;;15.85;100.00;101733.47;5222519;28;20042;-81
2023/09/06 05:11:15;;;;;;;9.07;6.30;;;;;;;15.94;100.00;101733.31;5222807;28;20285;-82
2023/09/06 05:13:47;;;;;;;8.55;5.85;;;;;;;15.91;100.00;101738.63;5223607;28;20037;-82
2023/09/06 05:16:18;;;;;;;14.53;6.17;;;;;;;15.97;100.00;101737.59;5226038;28;20033;-82
2023/09/06 05:18:49;;;;;;;11.23;5.93;;;;;;;16.04;100.00;101749.75;5232878;28;20030;-82
2023/09/06 05:21:21;;;;;;;8.43;5.40;;;;;;;15.97;100.00;101748.13;5208864;28;20116;-83
2023/09/06 05:23:52;;;;;;;7.90;5.60;;;;;;;16.06;100.00;101750.59;5201591;28;20449;-82
2023/09/06 05:26:24;;;;;;;7.40;6.30;;;;;;;16.06;100.00;101747.09;5201983;28;20501;-82
2023/09/06 05:28:55;;;;;;;10.97;6.20;;;;;;;16.09;100.00;101758.41;5201535;28;20109;-83
2023/09/06 05:31:26;;;;;;;8.83;6.60;;;;;;;16.11;100.00;101755.75;5201312;28;20045;-81
2023/09/06 05:33:58;;;;;;;7.53;6.13;;;;;;;16.12;100.00;101758.34;5201283;28;20030;-82
2023/09/06 05:36:29;;;;;;;8.67;6.40;;;;;;;16.13;100.00;101762.72;5201277;28;20113;-82
2023/09/06 05:39:00;;;;;;;13.30;6.33;;;;;;;16.21;100.00;101762.53;5201563;28;20034;-82
2023/09/06 05:41:33;;;;;;;11.80;6.43;;;;;;;16.08;100.00;101761.94;5201835;28;20026;-83
2023/09/06 05:44:04;;;;;;;7.53;6.13;;;;;;;16.11;100.00;101764.50;5201477;28;20031;-82
2023/09/06 05:46:36;;;;;;;9.67;6.23;;;;;;;16.17;100.00;101763.53;5201787;28;20034;-82
2023/09/06 05:49:08;;;;;;;8.63;5.87;;;;;;;16.23;100.00;101768.66;5206262;28;20054;-82
2023/09/06 05:51:39;;;;;;;13.75;5.88;;;;;;;16.31;100.00;101758.84;5203716;28;20497;-82
2023/09/06 05:54:11;;;;;;;7.33;6.10;;;;;;;16.35;100.00;101762.28;5206040;28;20030;-82
2023/09/06 05:56:42;;;;;;;7.90;6.00;;;;;;;16.41;100.00;101767.41;5206423;28;20034;-81
2023/09/06 05:59:14;;;;;;;11.60;7.43;;;;;;;16.41;100.00;101772.66;5191179;28;20038;-82
2023/09/06 06:01:45;;;;;;;9.53;5.80;;;;;;;16.53;100.00;101764.50;5208972;28;20492;-82
2023/09/06 06:04:16;;;;;;;8.00;6.60;;;;;;;16.62;100.00;101768.69;5205259;28;20034;-83
2023/09/06 06:06:48;;;;;;;9.93;6.57;;;;;;;16.69;100.00;101769.41;5204766;28;20038;-81
2023/09/06 06:09:21;;;;;;;9.37;6.70;;;;;;;16.77;100.00;101770.13;5205031;28;20117;-83
2023/09/06 06:11:53;;;;;;;9.23;6.95;;;;;;;16.92;100.00;101777.69;5205047;28;20449;-81
2023/09/06 06:14:28;;;;;;;12.10;6.77;;;;;;;16.95;100.00;101775.00;5187234;28;20031;-82
2023/09/06 06:16:59;;;;;;;11.38;6.43;;;;;;;17.06;100.00;101779.13;5204934;28;20045;-82
2023/09/06 06:19:32;;;;;;;11.43;6.77;;;;;;;17.08;100.00;101775.56;5204658;28;20026;-81
2023/09/06 06:22:04;;;;;;;11.80;7.28;;;;;;;17.19;100.00;101788.47;5204792;28;20524;-82
2023/09/06 06:24:35;;;;;;;9.90;7.03;;;;;;;17.26;100.00;101787.44;5204714;28;20046;-82
2023/09/06 06:27:07;;;;;;;10.50;7.50;;;;;;;17.39;99.39;101787.09;5204263;28;20269;-82
2023/09/06 06:29:38;;;;;;;8.87;7.10;;;;;;;17.44;98.31;101788.72;5204715;28;20437;-82
2023/09/06 06:32:09;;;;;;;11.67;7.53;;;;;;;17.56;97.37;101782.25;5204576;28;20363;-82
2023/09/06 06:34:43;;;;;;;10.70;7.33;;;;;;;17.65;96.61;101787.31;5204478;28;20454;-82
2023/09/06 06:37:15;;;;;;;9.85;7.57;;;;;;;17.75;96.16;101787.91;5186902;28;20447;-81
2023/09/06 06:39:47;;;;;;;10.77;7.35;;;;;;;17.86;95.63;101790.28;5204724;28;20030;-82
2023/09/06 06:42:18;;;;;;;9.93;7.67;;;;;;;17.94;95.46;101784.84;5204185;28;20151;-82
2023/09/06 06:44:49;;;;;;;9.23;7.97;;;;;;;18.00;94.97;101793.44;5204389;28;20038;-82
2023/09/06 06:47:21;;;;;;;15.17;8.33;;;;;;;18.11;93.97;101793.16;5204403;28;20036;-82
2023/09/06 06:49:54;;;;;;;12.23;8.07;;;;;;;18.18;93.64;101799.97;5203839;28;20053;-82
2023/09/06 06:52:30;;;;;;;10.02;8.85;;;;;;;18.27;92.61;101790.91;5204027;28;20052;-82
2023/09/06 06:55:03;;;;;;;10.07;7.82;;;;;;;18.40;91.61;101804.59;5204092;28;20041;-81
2023/09/06 06:57:35;;;;;;;11.07;7.80;;;;;;;18.53;91.03;101813.03;5204122;28;20463;-80
2023/09/06 07:00:11;;;;;;;9.47;7.40;;;;;;;18.62;90.79;101807.47;5203880;28;20042;-82
2023/09/06 07:02:42;;;;;;;11.20;6.95;;;;;;;18.69;90.59;101808.16;5203023;28;20026;-82
2023/09/06 07:05:13;;;;;;;10.40;6.90;;;;;;;18.80;89.37;101800.78;5203566;28;20049;-83
2023/09/06 07:07:45;;;;;;;9.77;6.80;;;;;;;18.92;89.14;101811.00;5203769;28;20027;-82
2023/09/06 07:10:17;;;;;;;10.70;6.30;;;;;;;19.01;87.76;101812.47;5203918;28;20031;-83
2023/09/06 07:12:49;;;;;;;10.23;6.50;;;;;;;19.15;87.18;101808.53;5203954;28;20140;-82
2023/09/06 07:15:20;;;;;;;9.33;6.27;;;;;;;19.26;86.10;101812.56;5204219;28;20467;-83
2023/09/06 07:17:52;;;;;;;8.87;6.27;;;;;;;19.37;86.17;101809.56;5203750;28;20085;-82
2023/09/06 07:20:23;;;;;;;7.57;5.87;;;;;;;19.44;85.99;101808.44;5203572;28;20396;-82
2023/09/06 07:22:54;;;;;;;8.73;6.90;;;;;;;19.58;84.93;101804.47;5205806;28;20030;-81
2023/09/06 07:25:27;;;;;;;8.73;7.83;;;;;;;19.68;84.10;101806.72;5188721;28;20056;-80
2023/09/06 07:27:59;;;;;;;7.22;6.18;;;;;;;19.86;84.09;101807.03;5205875;28;20038;-81
2023/09/06 07:30:32;;;;;;;10.53;7.23;;;;;;;19.92;82.42;101814.75;5204339;28;20104;-81
2023/09/06 07:33:03;;;;;;;8.85;6.30;;;;;;;20.10;82.04;101807.94;5187702;28;20446;-83
2023/09/06 07:35:35;;;;;;;7.50;6.67;;;;;;;20.12;81.98;101811.38;5205138;28;20065;-82
2023/09/06 07:38:06;;;;;;;11.80;6.57;;;;;;;20.28;81.68;101813.47;5204292;28;20034;-83
2023/09/06 07:40:37;;;;;;;8.17;6.30;;;;;;;20.44;81.57;101813.75;5203890;28;20026;-83
2023/09/06 07:43:09;;;;;;;9.83;6.27;;;;;;;20.56;82.09;101815.97;5203402;28;20034;-82
2023/09/06 07:45:42;;;;;;;6.70;5.97;;;;;;;20.72;80.87;101822.41;5204305;28;20031;-83
2023/09/06 07:48:13;;;;;;;8.40;6.38;;;;;;;20.84;80.61;101818.41;5187034;28;20367;-82
2023/09/06 07:50:47;;;;;;;9.07;5.97;;;;;;;20.96;79.57;101819.69;5203932;28;20084;-82
2023/09/06 07:53:18;;;;;;;14.35;6.55;;;;;;;21.04;79.49;101820.28;5203471;28;20081;-82
2023/09/06 07:55:50;;;;;;;9.05;6.05;;;;;;;21.23;79.94;101817.72;5203380;28;20027;-82
2023/09/06 07:58:23;;;;;;;10.50;5.70;;;;;;;21.27;77.19;101818.47;5185803;28;20121;-82
2023/09/06 08:00:54;;;;;;;8.27;6.00;;;;;;;21.50;80.07;101830.81;5203312;28;20034;-83
2023/09/06 08:03:26;;;;;;;13.73;5.50;;;;;;;21.56;76.65;101827.00;5185513;28;20101;-82
2023/09/06 08:05:57;;;;;;;7.53;5.95;;;;;;;21.76;76.30;101826.16;5203257;28;20075;-82
2023/09/06 08:08:29;;;;;;;7.85;4.75;;;;;;;21.85;75.38;101828.44;5204938;28;20122;-82
2023/09/06 08:11:00;;;;;;;8.63;4.73;;;;;;;22.02;74.54;101827.69;5192248;28;20038;-82
2023/09/06 08:13:31;;;;;;;5.93;4.60;;;;;;;22.10;74.06;101822.03;5189389;28;20031;-82
2023/09/06 08:16:03;;;;;;;11.57;4.20;;;;;;;22.22;72.12;101827.66;5202555;28;20390;-82
2023/09/06 08:18:34;;;;;;;12.67;4.70;;;;;;;22.32;72.70;101830.78;5202812;28;20037;-82
2023/09/06 08:21:07;;;;;;;5.83;3.47;;;;;;;22.40;70.32;101827.78;5202388;28;20172;-82
2023/09/06 08:23:38;;;;;;;5.18;3.67;;;;;;;22.56;71.49;101831.44;5202754;28;20069;-84
2023/09/06 08:26:11;;;;;;;7.17;3.97;;;;;;;22.70;70.64;101827.25;5202698;28;20078;-82
2023/09/06 08:28:42;;;;;;;9.15;4.38;;;;;;;22.87;72.02;101829.13;5202478;28;20034;-82
2023/09/06 08:31:14;;;;;;;9.00;3.60;;;;;;;22.89;68.96;101824.59;5202477;28;20077;-82
2023/09/06 08:33:45;;;;;;;11.37;3.93;;;;;;;23.00;70.11;101830.25;5202686;28;20467;-81
2023/09/06 08:36:16;;;;;;;6.57;3.50;;;;;;;23.09;68.03;101829.00;5202548;28;20031;-82
2023/09/06 08:38:48;;;;;;;9.77;4.33;;;;;;;23.16;67.61;101830.41;5184963;28;20030;-82
2023/09/06 08:41:20;;;;;;;6.57;3.23;;;;;;;23.26;69.67;101830.81;5202191;28;20064;-82
2023/09/06 08:43:52;;;;;;;7.07;3.72;;;;;;;23.36;66.42;101825.88;5202787;28;20482;-82
2023/09/06 08:46:29;;;;;;;5.13;3.42;;;;;;;23.53;66.09;101830.38;5203117;28;20106;-83
2023/09/06 08:49:03;;;;;;;5.15;2.88;;;;;;;23.58;66.91;101825.66;5202835;28;20057;-83
2023/09/06 08:51:35;;;;;;;7.70;3.28;;;;;;;23.78;67.80;101830.84;5202144;28;20034;-82
2023/09/06 08:54:07;;;;;;;;;;;;;;;23.86;66.28;101835.78;5202833;28;20057;-82
2023/09/06 08:56:39;;;;;;;10.80;3.03;;;;;;;24.06;66.40;101828.56;5204003;28;19921;-82
2023/09/06 08:59:11;;;;;;;5.40;3.57;;;;;;;24.18;67.52;101830.53;5205490;28;20045;-81
2023/09/06 09:01:43;;;;;;;3.33;2.60;;;;;;;24.20;63.90;101831.34;5213705;28;20031;-82
2023/09/06 09:04:14;;;;;;;4.07;2.80;;;;;;;24.36;62.73;101832.22;5213400;28;20121;-83
2023/09/06 09:06:46;;;;;;;4.43;2.90;;;;;;;24.82;61.34;101830.66;5203269;28;20041;-82
2023/09/06 09:09:18;;;;;;;4.73;3.20;;;;;;;25.64;57.85;101835.66;5201534;28;20418;-83
2023/09/06 09:11:51;;;;;;;5.35;2.85;;;;;;;26.40;57.26;101839.09;5201522;28;20034;-82
2023/09/06 09:14:26;;;;;;;3.85;2.33;;;;;;;27.04;53.71;101833.25;5201579;28;20092;-83
2023/09/06 09:16:59;;;;;;;4.43;2.60;;;;;;;27.72;52.13;101834.09;5201510;28;20466;-82
2023/09/06 09:19:30;;;;;;;3.78;2.38;;;;;;;28.15;47.71;101825.75;5201180;28;20474;-81
2023/09/06 09:22:07;;;;;;;;;;;;;;;29.36;50.52;101840.19;5201011;28;20040;-82
2023/09/06 09:24:38;;;;;;;6.90;2.90;;;;;;;29.09;43.98;101827.84;5201156;28;19918;-82
2023/09/06 09:27:09;;;;;;;;;;;;;;;30.23;48.37;101838.91;5201132;28;20129;-83
2023/09/06 09:29:41;;;;;;;4.05;2.55;;;;;;;29.96;42.94;101832.03;5201065;28;20392;-83
2023/09/06 09:32:13;;;;;;;;;;;;;;;31.05;42.77;101827.78;5201650;28;20113;-83
2023/09/06 09:34:44;;;;;;;5.80;2.90;;;;;;;30.60;39.98;101828.72;5200818;28;20005;-82
2023/09/06 09:37:16;;;;;;;8.00;2.90;;;;;;;30.74;40.41;101824.91;5201105;28;20461;-82
2023/09/06 09:39:47;;;;;;;4.97;2.55;;;;;;;30.92;39.72;101826.06;5183789;28;20435;-83
2023/09/06 09:42:19;;;;;;;6.25;3.05;;;;;;;31.22;40.00;101823.69;5201171;28;20034;-83
2023/09/06 09:45:01;;;;;;;5.45;2.88;;;;;;;31.67;40.28;101826.16;5183716;28;20050;-83
2023/09/06 09:47:34;;;;;;;5.88;3.10;;;;;;;31.69;39.63;101809.84;5183487;28;20034;-83
2023/09/06 09:50:06;;;;;;;8.68;3.33;;;;;;;31.95;39.37;101813.78;5200661;28;20447;-85
2023/09/06 09:52:42;;;;;;;6.15;3.00;;;;;;;32.18;39.65;101816.34;5201281;28;20125;-83
2023/09/06 09:55:15;;;;;;;7.50;2.90;;;;;;;32.64;37.41;101816.78;5201473;28;20038;-83
2023/09/06 09:57:48;;;;;;;8.63;3.20;;;;;;;32.73;35.32;101818.63;5203153;28;20041;-83
2023/09/06 10:00:27;;;;;;;6.35;3.30;;;;;;;32.93;36.03;101822.22;5207760;28;20062;-83
2023/09/06 10:03:00;;;;;;;5.22;3.17;;;;;;;33.25;34.93;101819.25;5192992;28;20129;-83
2023/09/06 10:05:31;;;;;;;5.80;2.75;;;;;;;33.28;33.76;101815.41;5208223;28;20034;-83
2023/09/06 10:08:07;;;;;;;7.72;2.95;;;;;;;33.01;35.32;101814.25;5212652;28;20141;-84
2023/09/06 10:10:40;;;;;;;6.28;3.30;;;;;;;34.08;34.81;101815.91;5213610;28;20065;-83
2023/09/06 10:13:14;;;;;;;5.95;2.55;;;;;;;33.89;33.44;101808.75;5195063;28;20057;-84
2023/09/06 10:15:47;;;;;;;11.98;3.13;;;;;;;34.68;32.70;101810.06;5214169;28;20038;-83
2023/09/06 10:18:19;;;;;;;4.85;2.90;;;;;;;35.26;31.80;101820.59;5214797;28;20027;-84
2023/09/06 10:20:50;;;;;;;5.38;3.22;;;;;;;35.24;30.70;101809.91;5214244;28;20045;-84
2023/09/06 10:23:22;;;;;;;7.53;3.92;;;;;;;35.33;30.52;101813.56;5212589;28;20034;-83
2023/09/06 10:25:53;;;;;;;10.40;3.28;;;;;;;35.28;30.55;101805.03;5211107;28;20117;-82
2023/09/06 10:28:25;;;;;;;10.98;4.32;;;;;;;35.73;29.91;101812.13;5212900;28;20097;-83
2023/09/06 10:31:07;;;;;;;6.53;2.95;;;;;;;36.06;30.27;101809.59;5212545;28;20050;-83
2023/09/06 10:33:42;;;;;;;6.10;3.90;;;;;;;35.82;31.12;101802.19;5211956;28;20031;-84
2023/09/06 10:36:14;;;;;;;6.82;3.60;;;;;;;36.50;30.64;101806.72;5211841;28;20133;-83
2023/09/06 10:39:14;;;;;;;10.00;3.70;;;;;;;37.50;31.30;101809.34;5212560;28;20545;-83
2023/09/06 10:42:13;;;;;;;6.32;3.28;;;;;;;37.74;28.89;101811.19;5206686;28;20032;-84
2023/09/06 10:44:53;;;;;;;5.63;3.60;;;;;;;37.57;29.16;101806.78;5206911;28;20034;-86
2023/09/06 10:47:25;;;;;;;4.80;3.40;;;;;;;38.15;28.28;101795.75;5205639;28;20026;-83
2023/09/06 10:50:12;;;;;;;8.15;3.83;;;;;;;38.54;28.45;101798.41;5204196;28;20034;-83
2023/09/06 10:52:49;;;;;;;7.13;3.97;;;;;;;38.08;26.90;101801.03;5204636;28;20033;-82
2023/09/06 10:55:22;;;;;;;8.30;3.92;;;;;;;38.63;27.12;101788.34;5204619;28;20077;-84
2023/09/06 10:58:03;;;;;;;8.68;3.70;;;;;;;38.99;27.86;101791.28;5204604;28;20061;-83
2023/09/06 11:00:35;;;;;;;7.77;3.70;;;;;;;39.14;25.70;101790.50;5187127;28;20129;-84
2023/09/06 11:03:06;;;;;;;4.80;3.72;;;;;;;39.49;25.44;101788.09;5203989;28;20393;-83
2023/09/06 11:05:40;;;;;;;4.60;3.50;;;;;;;39.54;25.19;101792.00;5203824;28;20034;-83
2023/09/06 11:08:24;;;;;;;7.30;4.13;;;;;;;39.91;26.30;101790.22;5203939;28;20300;-83
2023/09/06 11:11:01;;;;;;;6.55;4.05;;;;;;;39.60;24.95;101789.56;5186935;28;20034;-85
2023/09/06 11:13:33;;;;;;;6.10;3.35;;;;;;;39.94;24.05;101783.50;5203515;28;20111;-83
2023/09/06 11:16:10;;;;;;;5.80;4.07;;;;;;;39.52;22.70;101783.16;5203761;28;20030;-82
2023/09/06 11:18:46;;;;;;;4.63;3.60;;;;;;;39.94;23.99;101784.34;5203768;28;20030;-83
2023/09/06 11:21:23;;;;;;;6.22;3.95;;;;;;;40.11;23.34;101785.00;5203360;28;20474;-83
2023/09/06 11:23:54;;;;;;;4.70;3.83;;;;;;;40.58;22.35;101776.53;5203777;28;20034;-83
2023/09/06 11:26:27;;;;;;;7.43;4.38;;;;;;;40.52;23.31;101777.28;5203770;28;20100;-83
2023/09/06 11:29:05;;;;;;;8.18;4.40;;;;;;;40.96;22.72;101776.25;5186567;28;20112;-83
2023/09/06 11:31:37;;;;;;;8.13;3.95;;;;;;;41.44;21.65;101778.31;5203765;28;20088;-81
2023/09/06 11:34:12;;;;;;;6.60;4.50;;;;;;;41.35;20.68;101777.63;5203524;28;20041;-82
2023/09/06 11:36:43;;;;;;;4.38;3.42;;;;;;;41.28;21.08;101774.00;5203548;28;20045;-82
2023/09/06 11:39:21;;;;;;;6.72;4.32;;;;;;;40.72;21.13;101782.94;5203494;28;20461;-82
2023/09/06 11:41:54;;;;;;;5.00;3.70;;;;;;;40.88;20.11;101774.53;5203507;28;20469;-82
2023/09/06 11:44:26;;;;;;;5.07;4.10;;;;;;;40.89;21.65;101765.25;5204423;28;20478;-83
2023/09/06 11:46:58;;;;;;;7.30;4.47;;;;;;;41.86;21.41;101770.97;5204270;28;20045;-82
2023/09/06 11:49:32;;;;;;;5.13;3.95;;;;;;;42.00;20.46;101775.44;5204254;28;20069;-84